createdAt,value
2018-03-08T00:00:42.335Z,1.20
2018-03-08T00:01:45.620Z,0.98
2018-03-08T00:02:48.837Z,1.15
2018-03-08T00:03:52.066Z,1.40
2018-03-08T00:04:55.268Z,1.15
2018-03-08T00:05:58.480Z,1.10
2018-03-08T00:07:02.483Z,1.25
2018-03-08T00:08:05.741Z,1.40
2018-03-08T00:09:08.942Z,1.73
2018-03-08T00:10:12.213Z,1.60
2018-03-08T00:11:15.426Z,1.33
2018-03-08T00:12:19.407Z,1.33
2018-03-08T00:13:22.596Z,1.55
2018-03-08T00:14:26.615Z,1.20
2018-03-08T00:15:30.654Z,1.25
2018-03-08T00:16:33.900Z,1.65
2018-03-08T00:17:37.302Z,1.40
2018-03-08T00:18:41.469Z,1.40
2018-03-08T00:19:44.703Z,1.30
2018-03-08T00:20:47.903Z,1.42
2018-03-08T00:21:51.140Z,1.42
2018-03-08T00:22:54.363Z,1.25
2018-03-08T00:23:57.582Z,1.55
2018-03-08T00:25:00.814Z,1.33
2018-03-08T00:26:04.049Z,1.55
2018-03-08T00:27:07.290Z,1.58
2018-03-08T00:28:10.515Z,1.40
2018-03-08T00:29:13.720Z,1.37
2018-03-08T00:30:16.958Z,1.60
2018-03-08T00:31:20.169Z,1.67
2018-03-08T00:32:23.410Z,1.10
2018-03-08T00:33:26.643Z,1.20
2018-03-08T00:34:29.871Z,1.70
2018-03-08T00:35:33.218Z,1.15
2018-03-08T00:36:36.392Z,1.40
2018-03-08T00:37:40.389Z,1.58
2018-03-08T00:38:43.726Z,1.45
2018-03-08T00:39:46.925Z,1.65
2018-03-08T00:40:50.244Z,1.75
2018-03-08T00:41:53.489Z,1.65
2018-03-08T00:42:57.538Z,1.65
2018-03-08T00:44:00.787Z,1.30
2018-03-08T00:45:03.997Z,1.73
2018-03-08T00:46:07.278Z,1.90
2018-03-08T00:47:10.479Z,1.87
2018-03-08T00:48:14.490Z,1.90
2018-03-08T00:49:18.592Z,1.33
2018-03-08T00:50:21.833Z,1.40
2018-03-08T00:51:25.036Z,1.75
2018-03-08T00:52:29.102Z,1.65
2018-03-08T00:53:32.309Z,1.58
2018-03-08T00:54:35.521Z,1.30
2018-03-08T00:55:39.496Z,2.05
2018-03-08T00:56:42.708Z,1.73
2018-03-08T00:57:45.946Z,1.55
2018-03-08T00:58:49.170Z,2.17
2018-03-08T00:59:53.153Z,1.87
2018-03-08T01:00:57.175Z,1.67
2018-03-08T01:02:01.171Z,1.80
2018-03-08T01:03:05.255Z,1.50
2018-03-08T01:04:08.525Z,1.75
2018-03-08T01:05:11.784Z,1.50
2018-03-08T01:06:15.091Z,1.65
2018-03-08T01:07:18.373Z,1.55
2018-03-08T01:08:21.572Z,1.95
2018-03-08T01:09:24.785Z,1.75
2018-03-08T01:10:27.995Z,1.90
2018-03-08T01:11:31.250Z,2.08
2018-03-08T01:12:34.477Z,1.50
2018-03-08T01:13:37.753Z,1.75
2018-03-08T01:14:40.946Z,2.00
2018-03-08T01:15:44.196Z,2.10
2018-03-08T01:16:47.418Z,1.67
2018-03-08T01:17:50.686Z,1.65
2018-03-08T01:18:53.881Z,1.87
2018-03-08T01:19:57.104Z,2.00
2018-03-08T01:21:00.313Z,1.40
2018-03-08T01:22:03.555Z,1.60
2018-03-08T01:23:06.764Z,1.70
2018-03-08T01:24:09.995Z,2.00
2018-03-08T01:25:13.294Z,1.55
2018-03-08T01:26:16.609Z,1.83
2018-03-08T01:27:19.838Z,1.48
2018-03-08T01:28:23.066Z,1.55
2018-03-08T01:29:26.421Z,1.55
2018-03-08T01:30:29.695Z,1.55
2018-03-08T01:31:32.918Z,1.80
2018-03-08T01:32:36.893Z,1.60
2018-03-08T01:33:40.102Z,1.65
2018-03-08T01:34:44.082Z,1.60
2018-03-08T01:35:47.302Z,1.40
2018-03-08T01:36:50.535Z,1.75
2018-03-08T01:37:53.752Z,1.45
2018-03-08T01:38:57.003Z,1.80
2018-03-08T01:40:00.216Z,1.33
2018-03-08T01:41:03.443Z,1.85
2018-03-08T01:42:06.725Z,1.50
2018-03-08T01:43:09.956Z,1.40
2018-03-08T01:44:13.972Z,1.77
2018-03-08T01:45:17.201Z,1.25
2018-03-08T01:46:20.429Z,1.65
2018-03-08T01:47:24.404Z,1.37
2018-03-08T01:48:27.626Z,1.45
2018-03-08T01:49:30.900Z,1.30
2018-03-08T01:50:34.100Z,1.60
2018-03-08T01:51:37.331Z,1.60
2018-03-08T01:52:40.533Z,1.62
2018-03-08T01:53:44.508Z,1.40
2018-03-08T01:54:47.720Z,1.65
2018-03-08T01:55:51.733Z,1.87
2018-03-08T01:56:54.967Z,1.23
2018-03-08T01:57:58.171Z,1.37
2018-03-08T01:59:02.140Z,1.52
2018-03-08T02:00:05.390Z,1.52
2018-03-08T02:01:08.614Z,1.80
2018-03-08T02:02:11.843Z,1.77
2018-03-08T02:03:15.054Z,1.58
2018-03-08T02:04:18.261Z,1.50
2018-03-08T02:05:21.515Z,1.85
2018-03-08T02:06:24.720Z,1.37
2018-03-08T02:07:27.946Z,1.40
2018-03-08T02:08:31.925Z,1.67
2018-03-08T02:09:35.168Z,1.30
2018-03-08T02:10:38.404Z,1.30
2018-03-08T02:11:42.384Z,1.30
2018-03-08T02:12:45.597Z,1.48
2018-03-08T02:13:49.582Z,1.45
2018-03-08T02:14:52.790Z,1.55
2018-03-08T02:15:56.075Z,1.50
2018-03-08T02:16:59.275Z,1.40
2018-03-08T02:18:02.486Z,1.23
2018-03-08T02:19:05.702Z,1.83
2018-03-08T02:20:09.769Z,1.48
2018-03-08T02:21:12.956Z,1.40
2018-03-08T02:22:16.176Z,1.37
2018-03-08T02:23:20.146Z,1.40
2018-03-08T02:24:23.368Z,1.90
2018-03-08T02:25:26.576Z,1.48
2018-03-08T02:26:29.834Z,1.40
2018-03-08T02:27:33.113Z,1.33
2018-03-08T02:28:36.333Z,1.45
2018-03-08T02:29:39.541Z,1.87
2018-03-08T02:30:42.820Z,1.42
2018-03-08T02:31:46.027Z,1.55
2018-03-08T02:32:49.259Z,1.58
2018-03-08T02:33:52.490Z,1.52
2018-03-08T02:34:56.548Z,1.23
2018-03-08T02:35:59.745Z,1.30
2018-03-08T02:37:02.958Z,1.40
2018-03-08T02:38:06.185Z,1.30
2018-03-08T02:39:09.389Z,1.50
2018-03-08T02:40:12.601Z,1.67
2018-03-08T02:41:16.593Z,1.90
2018-03-08T02:42:19.816Z,1.73
2018-03-08T02:43:23.056Z,1.50
2018-03-08T02:44:26.295Z,1.40
2018-03-08T02:45:29.604Z,1.40
2018-03-08T02:46:32.844Z,1.60
2018-03-08T02:47:36.817Z,1.30
2018-03-08T02:48:40.017Z,1.67
2018-03-08T02:49:43.235Z,1.90
2018-03-08T02:50:46.453Z,1.45
2018-03-08T02:51:49.659Z,1.90
2018-03-08T02:52:53.678Z,1.42
2018-03-08T02:53:56.885Z,1.50
2018-03-08T02:55:00.096Z,2.12
2018-03-08T02:56:03.421Z,1.35
2018-03-08T02:57:07.396Z,1.33
2018-03-08T02:58:10.610Z,1.60
2018-03-08T02:59:14.613Z,1.33
2018-03-08T03:00:17.832Z,1.12
2018-03-08T03:01:21.118Z,1.30
2018-03-08T03:02:24.322Z,1.50
2018-03-08T03:03:27.529Z,1.27
2018-03-08T03:04:31.534Z,1.60
2018-03-08T03:05:35.529Z,1.45
2018-03-08T03:06:39.498Z,1.75
2018-03-08T03:07:42.733Z,1.37
2018-03-08T03:08:45.985Z,1.55
2018-03-08T03:09:50.015Z,1.77
2018-03-08T03:10:53.189Z,1.52
2018-03-08T03:11:56.472Z,1.80
2018-03-08T03:13:00.427Z,1.40
2018-03-08T03:14:04.441Z,1.62
2018-03-08T03:15:07.663Z,1.55
2018-03-08T03:16:10.879Z,1.50
2018-03-08T03:17:14.099Z,1.23
2018-03-08T03:18:17.328Z,1.30
2018-03-08T03:19:20.530Z,1.52
2018-03-08T03:20:23.754Z,1.33
2018-03-08T03:21:27.747Z,1.67
2018-03-08T03:22:31.042Z,1.70
2018-03-08T03:23:35.023Z,1.35
2018-03-08T03:24:38.242Z,1.25
2018-03-08T03:25:41.480Z,1.62
2018-03-08T03:26:44.694Z,1.65
2018-03-08T03:27:47.941Z,1.80
2018-03-08T03:28:51.161Z,1.70
2018-03-08T03:29:55.124Z,1.48
2018-03-08T03:30:58.351Z,1.33
2018-03-08T03:32:02.494Z,1.20
2018-03-08T03:33:05.776Z,1.60
2018-03-08T03:34:08.966Z,1.65
2018-03-08T03:35:12.209Z,1.42
2018-03-08T03:36:15.429Z,1.77
2018-03-08T03:37:18.665Z,1.30
2018-03-08T03:38:21.863Z,1.45
2018-03-08T03:39:25.079Z,1.70
2018-03-08T03:40:28.328Z,1.55
2018-03-08T03:41:31.559Z,1.60
2018-03-08T03:42:34.782Z,1.80
2018-03-08T03:43:38.082Z,1.40
2018-03-08T03:44:41.305Z,1.30
2018-03-08T03:45:44.518Z,1.40
2018-03-08T03:46:47.893Z,1.50
2018-03-08T03:47:51.186Z,1.40
2018-03-08T03:48:54.372Z,1.70
2018-03-08T03:49:58.433Z,1.27
2018-03-08T03:51:01.665Z,1.23
2018-03-08T03:52:04.936Z,1.45
2018-03-08T03:53:08.169Z,1.30
2018-03-08T03:54:11.362Z,1.27
2018-03-08T03:55:14.593Z,1.67
2018-03-08T03:56:17.885Z,1.85
2018-03-08T03:57:22.012Z,1.35
2018-03-08T03:58:25.217Z,1.73
2018-03-08T03:59:28.484Z,1.23
2018-03-08T04:00:31.681Z,1.30
2018-03-08T04:01:34.894Z,1.58
2018-03-08T04:02:38.251Z,1.08
2018-03-08T04:03:41.464Z,1.15
2018-03-08T04:04:44.680Z,1.40
2018-03-08T04:05:48.654Z,1.33
2018-03-08T04:06:51.873Z,1.30
2018-03-08T04:07:55.112Z,1.58
2018-03-08T04:08:58.342Z,1.55
2018-03-08T04:10:02.352Z,1.12
2018-03-08T04:11:05.576Z,1.40
2018-03-08T04:12:08.876Z,1.30
2018-03-08T04:13:12.070Z,1.20
2018-03-08T04:14:16.046Z,3.00
2018-03-08T04:15:19.256Z,1.40
2018-03-08T04:16:23.244Z,1.17
2018-03-08T04:17:26.457Z,1.50
2018-03-08T04:18:29.657Z,1.55
2018-03-08T04:19:32.894Z,1.50
2018-03-08T04:20:36.115Z,1.00
2018-03-08T04:21:39.342Z,1.65
2018-03-08T04:22:42.585Z,1.50
2018-03-08T04:23:46.551Z,1.45
2018-03-08T04:24:50.533Z,1.30
2018-03-08T04:25:53.755Z,1.23
2018-03-08T04:26:56.957Z,1.40
2018-03-08T04:28:00.176Z,1.48
2018-03-08T04:29:03.386Z,1.55
2018-03-08T04:30:07.362Z,1.50
2018-03-08T04:31:10.564Z,1.90
2018-03-08T04:32:14.548Z,2.15
2018-03-08T04:33:17.765Z,1.60
2018-03-08T04:34:21.001Z,1.23
2018-03-08T04:35:24.237Z,1.40
2018-03-08T04:36:27.458Z,1.75
2018-03-08T04:37:30.692Z,1.50
2018-03-08T04:38:34.655Z,1.48
2018-03-08T04:39:37.895Z,1.70
2018-03-08T04:40:41.092Z,1.75
2018-03-08T04:41:44.313Z,1.67
2018-03-08T04:42:47.552Z,1.50
2018-03-08T04:43:50.752Z,1.48
2018-03-08T04:44:53.961Z,1.52
2018-03-08T04:45:57.193Z,1.55
2018-03-08T04:47:00.400Z,1.67
2018-03-08T04:48:03.603Z,1.75
2018-03-08T04:49:06.882Z,1.73
2018-03-08T04:50:10.134Z,2.00
2018-03-08T04:51:13.388Z,2.30
2018-03-08T04:52:16.609Z,1.87
2018-03-08T04:53:19.817Z,1.58
2018-03-08T04:54:23.866Z,2.00
2018-03-08T04:55:27.020Z,2.17
2018-03-08T04:56:30.991Z,2.17
2018-03-08T04:57:34.202Z,1.85
2018-03-08T04:58:38.397Z,2.08
2018-03-08T04:59:42.384Z,1.98
2018-03-08T05:00:45.656Z,2.22
2018-03-08T05:01:48.865Z,1.98
2018-03-08T05:02:52.081Z,1.60
2018-03-08T05:03:55.301Z,1.80
2018-03-08T05:04:58.517Z,1.95
2018-03-08T05:06:01.769Z,2.58
2018-03-08T05:07:04.979Z,2.22
2018-03-08T05:08:08.190Z,1.55
2018-03-08T05:09:11.432Z,1.70
2018-03-08T05:10:14.639Z,1.70
2018-03-08T05:11:18.071Z,1.92
2018-03-08T05:12:21.298Z,2.10
2018-03-08T05:13:25.277Z,1.77
2018-03-08T05:14:28.488Z,1.90
2018-03-08T05:15:32.499Z,1.80
2018-03-08T05:16:35.713Z,1.02
2018-03-08T05:17:38.935Z,1.50
2018-03-08T05:18:42.142Z,1.83
2018-03-08T05:19:46.122Z,1.50
2018-03-08T05:20:50.114Z,1.80
2018-03-08T05:21:53.323Z,1.83
2018-03-08T05:22:57.298Z,1.62
2018-03-08T05:24:00.513Z,1.40
2018-03-08T05:25:03.728Z,1.87
2018-03-08T05:26:06.929Z,2.10
2018-03-08T05:27:10.257Z,2.00
2018-03-08T05:28:14.264Z,1.70
2018-03-08T05:29:17.591Z,2.00
2018-03-08T05:30:20.797Z,1.58
2018-03-08T05:31:24.036Z,1.80
2018-03-08T05:32:27.241Z,1.60
2018-03-08T05:33:30.447Z,1.60
2018-03-08T05:34:33.772Z,2.00
2018-03-08T05:35:37.040Z,2.12
2018-03-08T05:36:41.052Z,2.10
2018-03-08T05:37:44.264Z,1.67
2018-03-08T05:38:48.302Z,1.62
2018-03-08T05:39:51.518Z,1.98
2018-03-08T05:40:54.743Z,2.25
2018-03-08T05:41:58.749Z,1.52
2018-03-08T05:43:02.002Z,1.60
2018-03-08T05:44:05.303Z,1.70
2018-03-08T05:45:08.717Z,2.53
2018-03-08T05:46:11.968Z,1.95
2018-03-08T05:47:15.254Z,1.77
2018-03-08T05:48:18.475Z,1.55
2018-03-08T05:49:21.706Z,1.40
2018-03-08T05:50:25.707Z,2.00
2018-03-08T05:51:28.918Z,1.80
2018-03-08T05:52:34.219Z,1.75
2018-03-08T05:53:37.539Z,2.05
2018-03-08T05:54:40.816Z,1.77
2018-03-08T05:55:44.002Z,1.80
2018-03-08T05:56:47.266Z,1.67
2018-03-08T05:57:51.260Z,1.77
2018-03-08T05:58:55.231Z,1.87
2018-03-08T05:59:58.445Z,1.75
2018-03-08T06:01:02.458Z,1.80
2018-03-08T06:02:06.447Z,2.35
2018-03-08T06:03:10.567Z,1.77
2018-03-08T06:04:14.126Z,2.33
2018-03-08T06:05:17.568Z,1.70
2018-03-08T06:06:20.826Z,1.98
2018-03-08T06:07:25.169Z,1.60
2018-03-08T06:08:29.122Z,2.12
2018-03-08T06:09:32.331Z,2.20
2018-03-08T06:10:36.335Z,1.90
2018-03-08T06:11:40.315Z,1.95
2018-03-08T06:12:43.538Z,1.80
2018-03-08T06:13:46.771Z,2.10
2018-03-08T06:14:51.203Z,2.12
2018-03-08T06:15:56.197Z,1.98
2018-03-08T06:16:59.433Z,2.08
2018-03-08T06:18:02.791Z,1.70
2018-03-08T06:19:06.110Z,2.00
2018-03-08T06:20:09.359Z,2.08
2018-03-08T06:21:12.587Z,2.35
2018-03-08T06:22:16.554Z,1.90
2018-03-08T06:23:20.529Z,2.22
2018-03-08T06:24:24.204Z,2.12
2018-03-08T06:25:28.222Z,3.10
2018-03-08T06:26:31.470Z,2.80
2018-03-08T06:27:35.627Z,2.60
2018-03-08T06:28:38.838Z,2.55
2018-03-08T06:29:42.378Z,2.10
2018-03-08T06:30:46.483Z,2.10
2018-03-08T06:31:50.582Z,2.30
2018-03-08T06:32:54.624Z,1.83
2018-03-08T06:33:59.434Z,2.33
2018-03-08T06:35:03.402Z,1.80
2018-03-08T06:36:07.042Z,1.98
2018-03-08T06:37:12.111Z,2.05
2018-03-08T06:38:16.111Z,1.90
2018-03-08T06:39:19.706Z,2.20
2018-03-08T06:40:24.726Z,2.15
2018-03-08T06:41:27.950Z,2.25
2018-03-08T06:42:32.354Z,2.75
2018-03-08T06:43:35.571Z,2.28
2018-03-08T06:44:39.708Z,2.28
2018-03-08T06:45:43.918Z,2.20
2018-03-08T06:46:48.069Z,2.30
2018-03-08T06:47:52.141Z,2.22
2018-03-08T06:48:55.406Z,1.90
2018-03-08T06:49:58.695Z,2.22
2018-03-08T06:51:02.615Z,3.28
2018-03-08T06:52:06.659Z,3.03
2018-03-08T06:53:10.821Z,3.42
2018-03-08T06:54:14.089Z,3.17
2018-03-08T06:55:17.288Z,2.47
2018-03-08T06:56:21.261Z,1.80
2018-03-08T06:57:24.745Z,2.70
2018-03-08T06:58:30.164Z,2.30
2018-03-08T06:59:34.117Z,2.00
2018-03-08T07:00:38.223Z,2.28
2018-03-08T07:01:42.201Z,2.12
2018-03-08T07:02:45.460Z,1.98
2018-03-08T07:03:49.147Z,2.72
2018-03-08T07:04:52.395Z,2.33
2018-03-08T07:05:55.647Z,2.03
2018-03-08T07:06:59.126Z,2.10
2018-03-08T07:08:03.476Z,2.47
2018-03-08T07:09:08.243Z,2.33
2018-03-08T07:10:11.539Z,2.60
2018-03-08T07:11:14.768Z,2.22
2018-03-08T07:12:18.024Z,1.77
2018-03-08T07:13:22.035Z,2.47
2018-03-08T07:14:25.249Z,2.30
2018-03-08T07:15:28.468Z,3.47
2018-03-08T07:16:31.694Z,2.90
2018-03-08T07:17:35.533Z,3.30
2018-03-08T07:18:38.759Z,2.10
2018-03-08T07:19:42.798Z,2.12
2018-03-08T07:20:46.080Z,2.45
2018-03-08T07:21:49.319Z,2.53
2018-03-08T07:22:52.780Z,2.03
2018-03-08T07:23:56.810Z,2.20
2018-03-08T07:25:00.807Z,1.70
2018-03-08T07:26:04.071Z,2.50
2018-03-08T07:27:07.997Z,2.42
2018-03-08T07:28:11.255Z,2.67
2018-03-08T07:29:14.717Z,2.25
2018-03-08T07:30:18.369Z,2.70
2018-03-08T07:31:22.354Z,2.00
2018-03-08T07:32:26.398Z,2.03
2018-03-08T07:34:39.160Z,2.42
2018-03-08T07:35:42.602Z,2.75
2018-03-08T07:36:46.595Z,2.10
2018-03-08T07:37:49.862Z,2.22
2018-03-08T07:38:53.861Z,2.00
2018-03-08T07:39:57.146Z,3.30
2018-03-08T07:41:01.139Z,2.58
2018-03-08T07:42:05.373Z,2.40
2018-03-08T07:43:08.638Z,1.70
2018-03-08T07:44:11.896Z,1.90
2018-03-08T07:45:15.126Z,2.25
2018-03-08T07:46:18.377Z,2.37
2018-03-08T07:47:21.669Z,1.90
2018-03-08T07:48:26.441Z,2.40
2018-03-08T07:49:29.891Z,1.95
2018-03-08T07:50:33.884Z,2.17
2018-03-08T07:51:37.108Z,2.35
2018-03-08T07:52:41.879Z,1.83
2018-03-08T07:53:45.065Z,2.47
2018-03-08T07:54:48.341Z,1.52
2018-03-08T07:55:53.266Z,2.25
2018-03-08T07:56:57.260Z,2.30
2018-03-08T07:58:01.277Z,1.70
2018-03-08T07:59:05.019Z,2.00
2018-03-08T08:00:09.818Z,1.67
2018-03-08T08:01:13.950Z,1.85
2018-03-08T08:02:18.006Z,1.55
2018-03-08T08:03:21.245Z,1.92
2018-03-08T08:04:36.383Z,2.03
2018-03-08T08:05:51.367Z,1.90
2018-03-08T08:07:07.127Z,1.90
2018-03-08T08:08:23.264Z,1.87
2018-03-08T08:09:26.507Z,1.67
2018-03-08T08:10:29.777Z,2.17
2018-03-08T08:11:32.981Z,1.80
2018-03-08T08:12:36.866Z,1.95
2018-03-08T08:13:40.153Z,1.83
2018-03-08T08:14:43.379Z,1.80
2018-03-08T08:15:46.611Z,2.05
2018-03-08T08:16:49.845Z,1.35
2018-03-08T08:17:53.308Z,1.45
2018-03-08T08:18:56.503Z,1.77
2018-03-08T08:20:00.514Z,1.77
2018-03-08T08:21:03.842Z,1.73
2018-03-08T08:22:07.053Z,1.85
2018-03-08T08:23:10.261Z,1.70
2018-03-08T08:24:13.516Z,1.37
2018-03-08T08:25:16.782Z,2.20
2018-03-08T08:26:20.185Z,1.90
2018-03-08T08:27:23.935Z,1.30
2018-03-08T08:28:27.182Z,1.65
2018-03-08T08:29:30.474Z,1.42
2018-03-08T08:30:33.681Z,1.73
2018-03-08T08:31:36.914Z,1.60
2018-03-08T08:32:40.930Z,1.58
2018-03-08T08:33:44.167Z,1.45
2018-03-08T08:34:47.407Z,1.35
2018-03-08T08:35:50.700Z,1.30
2018-03-08T08:36:53.905Z,1.33
2018-03-08T08:37:57.149Z,1.48
2018-03-08T08:39:00.452Z,1.40
2018-03-08T08:40:03.689Z,1.00
2018-03-08T08:41:06.912Z,1.23
2018-03-08T08:42:10.149Z,1.30
2018-03-08T08:43:14.136Z,1.45
2018-03-08T08:44:17.371Z,1.27
2018-03-08T08:45:20.575Z,1.40
2018-03-08T08:46:24.761Z,1.50
2018-03-08T08:47:28.862Z,1.30
2018-03-08T08:48:32.288Z,1.60
2018-03-08T08:49:36.327Z,1.10
2018-03-08T08:50:39.551Z,1.25
2018-03-08T08:51:42.770Z,1.37
2018-03-08T08:52:45.990Z,1.33
2018-03-08T08:53:49.977Z,1.30
2018-03-08T08:54:53.978Z,1.20
2018-03-08T08:55:57.960Z,1.65
2018-03-08T08:57:01.204Z,1.00
2018-03-08T08:58:04.415Z,1.48
2018-03-08T08:59:07.673Z,1.10
2018-03-08T09:00:10.921Z,0.90
2018-03-08T09:01:14.902Z,1.15
2018-03-08T09:02:18.123Z,1.30
2018-03-08T09:03:21.338Z,1.73
2018-03-08T09:04:24.562Z,1.20
2018-03-08T09:05:28.569Z,0.98
2018-03-08T09:06:32.937Z,1.15
2018-03-08T09:07:36.242Z,1.25
2018-03-08T09:08:39.411Z,1.17
2018-03-08T09:09:42.633Z,1.10
2018-03-08T09:10:45.847Z,1.12
2018-03-08T09:11:49.049Z,1.00
2018-03-08T09:12:52.281Z,1.00
2018-03-08T09:13:55.549Z,0.90
2018-03-08T09:14:59.571Z,1.02
2018-03-08T09:16:02.790Z,1.30
2018-03-08T09:17:06.044Z,1.05
2018-03-08T09:18:09.275Z,1.50
2018-03-08T09:19:13.271Z,0.93
2018-03-08T09:20:16.519Z,1.20
2018-03-08T09:21:19.736Z,0.90
2018-03-08T09:22:22.958Z,1.25
2018-03-08T09:23:26.186Z,1.35
2018-03-08T09:24:29.402Z,0.85
2018-03-08T09:25:33.453Z,1.15
2018-03-08T09:26:36.657Z,1.37
2018-03-08T09:27:39.931Z,1.12
2018-03-08T09:28:43.105Z,1.00
2018-03-08T09:29:46.317Z,1.20
2018-03-08T09:30:49.550Z,0.88
2018-03-08T09:31:52.782Z,1.10
2018-03-08T09:32:56.057Z,1.00
2018-03-08T09:33:59.257Z,0.95
2018-03-08T09:35:02.563Z,0.88
2018-03-08T09:36:05.776Z,1.40
2018-03-08T09:37:09.023Z,0.90
2018-03-08T09:38:13.331Z,1.10
2018-03-08T09:39:17.359Z,1.23
2018-03-08T09:40:20.621Z,1.10
2018-03-08T09:41:23.875Z,0.85
2018-03-08T09:42:27.123Z,1.10
2018-03-08T09:43:31.249Z,1.30
2018-03-08T09:44:34.938Z,1.00
2018-03-08T09:45:38.189Z,1.50
2018-03-08T09:46:41.847Z,0.88
2018-03-08T09:47:45.840Z,1.55
2018-03-08T09:48:49.069Z,1.48
2018-03-08T09:49:52.287Z,1.37
2018-03-08T09:50:55.505Z,1.30
2018-03-08T09:51:59.478Z,1.25
2018-03-08T09:53:02.749Z,1.00
2018-03-08T09:54:05.955Z,1.30
2018-03-08T09:55:09.295Z,1.30
2018-03-08T09:56:12.535Z,1.37
2018-03-08T09:57:16.559Z,1.40
2018-03-08T09:58:19.793Z,1.20
2018-03-08T09:59:23.088Z,1.52
2018-03-08T10:00:26.962Z,1.20
2018-03-08T10:01:30.248Z,1.00
2018-03-08T10:02:33.532Z,1.42
2018-03-08T10:03:36.788Z,1.60
2018-03-08T10:04:40.055Z,1.17
2018-03-08T10:05:44.657Z,0.82
2018-03-08T10:06:48.676Z,1.35
2018-03-08T10:07:51.926Z,1.12
2018-03-08T10:08:55.157Z,0.90
2018-03-08T10:10:00.018Z,1.20
2018-03-08T10:11:03.261Z,0.93
2018-03-08T10:12:06.492Z,1.12
2018-03-08T10:13:09.779Z,1.23
2018-03-08T10:14:13.031Z,1.30
2018-03-08T10:15:16.239Z,1.08
2018-03-08T10:16:19.468Z,1.20
2018-03-08T10:17:23.658Z,1.48
2018-03-08T10:18:27.653Z,1.58
2018-03-08T10:19:30.879Z,1.37
2018-03-08T10:20:34.114Z,1.58
2018-03-08T10:21:45.095Z,1.90
2018-03-08T10:22:41.340Z,1.17
2018-03-08T10:23:44.687Z,1.27
2018-03-08T10:24:50.234Z,0.93
2018-03-08T10:25:53.489Z,1.40
2018-03-08T10:26:57.707Z,1.40
2018-03-08T10:28:01.697Z,0.90
2018-03-08T10:29:05.514Z,1.27
2018-03-08T10:30:08.784Z,1.00
2018-03-08T10:31:13.784Z,1.37
2018-03-08T10:32:17.615Z,0.93
2018-03-08T10:33:21.780Z,1.27
2018-03-08T10:34:25.019Z,0.90
2018-03-08T10:35:29.242Z,1.10
2018-03-08T10:36:32.477Z,1.40
2018-03-08T10:37:36.465Z,1.20
2018-03-08T10:38:40.512Z,1.00
2018-03-08T10:39:43.733Z,1.33
2018-03-08T10:40:46.955Z,1.00
2018-03-08T10:41:50.969Z,1.30
2018-03-08T10:42:54.890Z,1.30
2018-03-08T10:43:58.405Z,1.25
2018-03-08T10:45:02.378Z,1.08
2018-03-08T10:46:05.610Z,1.23
2018-03-08T10:47:10.676Z,1.10
2018-03-08T10:48:15.461Z,1.33
2018-03-08T10:49:18.686Z,1.73
2018-03-08T10:50:21.922Z,1.08
2018-03-08T10:51:25.181Z,1.25
2018-03-08T10:52:28.414Z,1.65
2018-03-08T10:53:31.666Z,1.87
2018-03-08T10:54:35.066Z,1.25
2018-03-08T10:55:38.266Z,1.45
2018-03-08T10:56:41.505Z,1.10
2018-03-08T10:57:44.760Z,1.20
2018-03-08T10:58:47.966Z,0.98
2018-03-08T10:59:51.220Z,1.37
2018-03-08T11:00:55.260Z,1.58
2018-03-08T11:02:02.745Z,1.20
2018-03-08T11:03:06.926Z,0.90
2018-03-08T11:04:30.139Z,1.15
2018-03-08T11:05:39.858Z,0.60
2018-03-08T11:06:43.873Z,1.23
2018-03-08T11:07:47.337Z,0.52
2018-03-08T11:08:50.556Z,0.93
2018-03-08T11:09:53.777Z,1.10
2018-03-08T11:10:57.041Z,1.00
2018-03-08T11:12:00.334Z,0.93
2018-03-08T11:13:03.605Z,0.90
2018-03-08T11:14:06.828Z,1.00
2018-03-08T11:15:10.073Z,1.25
2018-03-08T11:16:13.340Z,1.30
2018-03-08T11:17:17.309Z,0.90
2018-03-08T11:18:21.322Z,1.30
2018-03-08T11:19:25.313Z,1.20
2018-03-08T11:20:28.901Z,1.17
2018-03-08T11:21:32.878Z,1.12
2018-03-08T11:22:36.102Z,1.20
2018-03-08T11:23:39.407Z,1.50
2018-03-08T11:24:44.305Z,1.05
2018-03-08T11:25:48.320Z,1.80
2018-03-08T11:26:51.608Z,2.28
2018-03-08T11:27:55.807Z,1.70
2018-03-08T11:28:59.068Z,2.58
2018-03-08T11:30:02.340Z,1.10
2018-03-08T11:31:06.485Z,0.82
2018-03-08T11:32:09.781Z,1.00
2018-03-08T11:33:13.770Z,1.00
2018-03-08T11:34:17.018Z,0.90
2018-03-08T11:35:21.006Z,0.68
2018-03-08T11:36:24.871Z,0.95
2018-03-08T11:37:28.092Z,0.80
2018-03-08T11:38:32.143Z,0.80
2018-03-08T11:39:35.373Z,0.70
2018-03-08T11:40:41.004Z,0.88
2018-03-08T11:41:43.575Z,0.82
2018-03-08T11:42:47.741Z,0.80
2018-03-08T11:43:50.994Z,1.00
2018-03-08T11:44:55.228Z,1.05
2018-03-08T11:45:58.683Z,1.20
2018-03-08T11:47:02.247Z,0.80
2018-03-08T11:48:05.363Z,1.35
2018-03-08T11:49:09.058Z,1.42
2018-03-08T11:50:13.815Z,0.80
2018-03-08T11:51:17.900Z,0.80
2018-03-08T11:52:21.882Z,1.10
2018-03-08T11:53:25.130Z,1.12
2018-03-08T11:54:28.360Z,0.73
2018-03-08T11:55:32.389Z,1.25
2018-03-08T11:56:35.623Z,1.00
2018-03-08T11:57:40.645Z,0.70
2018-03-08T11:58:43.869Z,1.40
2018-03-08T11:59:47.110Z,1.08
2018-03-08T12:00:50.373Z,1.65
2018-03-08T12:01:53.645Z,1.50
2018-03-08T12:02:56.952Z,1.25
2018-03-08T12:04:00.190Z,1.33
2018-03-08T12:05:04.181Z,0.90
2018-03-08T12:06:08.179Z,1.15
2018-03-08T12:07:12.471Z,1.10
2018-03-08T12:08:16.471Z,1.83
2018-03-08T12:09:19.712Z,1.45
2018-03-08T12:10:22.943Z,0.85
2018-03-08T12:11:26.198Z,1.50
2018-03-08T12:12:29.422Z,2.40
2018-03-08T12:13:32.641Z,1.00
2018-03-08T12:14:35.859Z,1.40
2018-03-08T12:15:39.096Z,1.08
2018-03-08T12:16:42.313Z,1.00
2018-03-08T12:17:45.541Z,1.10
2018-03-08T12:18:49.551Z,1.60
2018-03-08T12:19:52.788Z,1.25
2018-03-08T12:20:56.022Z,1.60
2018-03-08T12:21:59.315Z,1.25
2018-03-08T12:23:02.628Z,1.15
2018-03-08T12:24:05.950Z,1.20
2018-03-08T12:25:09.184Z,1.33
2018-03-08T12:26:12.411Z,1.00
2018-03-08T12:27:16.491Z,1.05
2018-03-08T12:28:19.721Z,1.00
2018-03-08T12:29:23.003Z,0.80
2018-03-08T12:30:27.894Z,1.02
2018-03-08T12:31:31.127Z,0.80
2018-03-08T12:32:34.356Z,0.90
2018-03-08T12:33:37.615Z,1.00
2018-03-08T12:34:40.838Z,1.62
2018-03-08T12:35:44.850Z,0.80
2018-03-08T12:36:48.820Z,0.93
2018-03-08T12:37:52.055Z,1.10
2018-03-08T12:38:55.273Z,1.30
2018-03-08T12:39:58.572Z,0.95
2018-03-08T12:41:02.587Z,1.05
2018-03-08T12:42:06.600Z,0.85
2018-03-08T12:43:09.825Z,0.82
2018-03-08T12:44:13.088Z,1.12
2018-03-08T12:45:16.306Z,0.70
2018-03-08T12:46:19.554Z,0.90
2018-03-08T12:47:22.800Z,1.10
2018-03-08T12:48:26.786Z,0.90
2018-03-08T12:49:30.043Z,1.10
2018-03-08T12:50:33.868Z,1.10
2018-03-08T12:51:37.132Z,1.10
2018-03-08T12:52:40.396Z,0.85
2018-03-08T12:53:43.655Z,0.95
2018-03-08T12:54:47.641Z,0.80
2018-03-08T12:55:51.630Z,1.20
2018-03-08T12:56:54.891Z,0.73
2018-03-08T12:57:58.293Z,0.90
2018-03-08T12:59:01.648Z,1.10
2018-03-08T13:00:04.920Z,0.88
2018-03-08T13:01:08.410Z,1.17
2018-03-08T13:02:11.642Z,1.40
2018-03-08T13:03:16.367Z,1.00
2018-03-08T13:04:19.607Z,1.40
2018-03-08T13:05:22.835Z,1.20
2018-03-08T13:06:26.390Z,1.12
2018-03-08T13:07:29.647Z,0.90
2018-03-08T13:08:33.974Z,1.20
2018-03-08T13:09:37.240Z,0.95
2018-03-08T13:10:40.999Z,1.05
2018-03-08T13:11:45.008Z,1.00
2018-03-08T13:12:49.034Z,0.85
2018-03-08T13:13:52.266Z,0.75
2018-03-08T13:14:56.263Z,0.82
2018-03-08T13:16:00.255Z,1.20
2018-03-08T13:17:03.533Z,1.95
2018-03-08T13:18:06.778Z,1.00
2018-03-08T13:19:10.058Z,0.90
2018-03-08T13:20:13.401Z,0.95
2018-03-08T13:21:16.657Z,1.10
2018-03-08T13:22:20.772Z,1.33
2018-03-08T13:23:24.056Z,0.95
2018-03-08T13:24:27.355Z,0.80
2018-03-08T13:25:31.402Z,0.90
2018-03-08T13:26:34.645Z,0.80
2018-03-08T13:27:37.890Z,1.12
2018-03-08T13:28:41.188Z,1.10
2018-03-08T13:29:45.622Z,0.90
2018-03-08T13:30:49.618Z,0.98
2018-03-08T13:31:53.464Z,0.93
2018-03-08T13:32:56.705Z,0.85
2018-03-08T13:34:00.997Z,0.93
2018-03-08T13:35:05.764Z,0.73
2018-03-08T13:36:08.984Z,1.05
2018-03-08T13:37:12.215Z,0.90
2018-03-08T13:38:15.488Z,0.70
2018-03-08T13:39:18.711Z,0.90
2018-03-08T13:40:21.940Z,1.02
2018-03-08T13:41:26.662Z,1.00
2018-03-08T13:42:30.718Z,0.95
2018-03-08T13:43:33.984Z,0.93
2018-03-08T13:44:37.870Z,0.98
2018-03-08T13:45:41.166Z,1.02
2018-03-08T13:46:45.117Z,1.45
2018-03-08T13:47:49.132Z,1.33
2018-03-08T13:48:53.202Z,0.98
2018-03-08T13:49:56.429Z,0.90
2018-03-08T13:51:00.474Z,0.90
2018-03-08T13:52:03.685Z,1.25
2018-03-08T13:53:06.915Z,0.80
2018-03-08T13:54:10.164Z,0.90
2018-03-08T13:55:14.787Z,0.85
2018-03-08T13:56:19.469Z,1.02
2018-03-08T13:57:22.726Z,0.70
2018-03-08T13:58:25.971Z,0.68
2018-03-08T13:59:29.971Z,0.70
2018-03-08T14:00:33.957Z,0.80
2018-03-08T14:01:37.977Z,0.80
2018-03-08T14:02:41.955Z,0.75
2018-03-08T14:03:45.980Z,0.98
2018-03-08T14:04:49.984Z,0.85
2018-03-08T14:05:53.969Z,0.73
2018-03-08T14:06:57.973Z,0.93
2018-03-08T14:08:01.963Z,0.93